createdAt,value
2018-05-29T00:00:52.774Z,9.53
2018-05-29T00:06:47.761Z,9.78
2018-05-29T00:12:42.788Z,9.57
2018-05-29T00:18:37.770Z,9.67
2018-05-29T00:24:32.764Z,10.08
2018-05-29T00:30:27.778Z,11.07
2018-05-29T00:36:22.847Z,11.41
2018-05-29T00:42:17.780Z,10.86
2018-05-29T00:48:12.777Z,10.33
2018-05-29T00:54:07.794Z,10.54
2018-05-29T01:00:02.811Z,11.36
2018-05-29T01:05:57.822Z,10.94
2018-05-29T01:11:52.812Z,10.11
2018-05-29T01:17:47.888Z,10.15
2018-05-29T01:23:42.788Z,10
2018-05-29T01:29:37.803Z,10.33
2018-05-29T01:35:32.838Z,9.92
2018-05-29T01:41:27.806Z,9.42
2018-05-29T01:47:22.820Z,9.06
2018-05-29T01:53:17.895Z,9.27
2018-05-29T01:59:12.812Z,9.13
2018-05-29T02:05:07.849Z,9.89
2018-05-29T02:11:02.841Z,10.81
2018-05-29T02:16:57.834Z,10.6
2018-05-29T02:22:52.838Z,10.86
2018-05-29T02:28:47.861Z,11.17
2018-05-29T02:34:42.869Z,11.5
2018-05-29T02:40:37.860Z,11.23
2018-05-29T02:46:32.875Z,10.83
2018-05-29T02:52:27.872Z,10.97
2018-05-29T02:58:22.914Z,10.78
2018-05-29T03:04:17.889Z,11.46
2018-05-29T03:10:13.170Z,11.87
2018-05-29T03:16:07.927Z,12.47
2018-05-29T03:22:02.957Z,11.5
2018-05-29T03:27:57.868Z,11.72
2018-05-29T03:33:52.876Z,11.94
2018-05-29T03:39:47.865Z,10.6
2018-05-29T03:45:42.881Z,11.99
2018-05-29T03:51:37.940Z,11.7
2018-05-29T03:57:32.977Z,12.03
2018-05-29T04:03:27.920Z,12.08
2018-05-29T04:09:22.987Z,11.91
2018-05-29T04:15:17.913Z,11.45
2018-05-29T04:21:12.894Z,3.71
2018-05-29T04:27:07.922Z,12.14
2018-05-29T04:33:02.989Z,11.09
2018-05-29T04:38:57.959Z,11.63
2018-05-29T04:44:52.975Z,11.41
2018-05-29T04:50:47.895Z,12.2
2018-05-29T04:56:42.925Z,11.9
2018-05-29T05:02:37.993Z,11.52
2018-05-29T05:08:32.933Z,12.27
2018-05-29T05:14:27.917Z,11.79
2018-05-29T05:20:22.937Z,11.34
2018-05-29T05:26:17.967Z,11.66
2018-05-29T05:32:13.049Z,11.83
2018-05-29T05:38:07.932Z,11.97
2018-05-29T05:44:02.993Z,11.73
2018-05-29T05:49:57.956Z,12.08
2018-05-29T05:55:52.960Z,12.24
2018-05-29T06:01:47.978Z,12.86
2018-05-29T06:07:43.265Z,11.86
2018-05-29T06:13:37.969Z,12.56
2018-05-29T06:19:32.976Z,11.75
2018-05-29T06:25:28.492Z,11.34
2018-05-29T06:31:22.980Z,11.54
2018-05-29T06:37:18.144Z,20.89
2018-05-29T06:43:12.972Z,29.45
2018-05-29T06:49:07.983Z,10.93
2018-05-29T06:55:03.255Z,10.45
2018-05-29T07:00:57.988Z,10.05
2018-05-29T07:06:52.971Z,9.77
2018-05-29T07:12:48.001Z,9.13
2018-05-29T07:18:43.048Z,10.33
2018-05-29T07:24:37.989Z,8.7
2018-05-29T07:30:33.063Z,9.34
2018-05-29T07:36:27.989Z,11.94
2018-05-29T07:42:23.047Z,11.64
2018-05-29T07:48:17.990Z,11.04
2018-05-29T07:54:13.057Z,10.6
2018-05-29T08:00:08.034Z,7.66
2018-05-29T08:06:03.046Z,7.86
2018-05-29T08:11:58.028Z,8.09
2018-05-29T08:17:53.095Z,7.11
2018-05-29T08:23:48.084Z,6.34
2018-05-29T08:29:43.022Z,6.77
2018-05-29T08:35:38.051Z,6.91
2018-05-29T08:41:33.063Z,6.37
2018-05-29T08:47:28.024Z,6.14
2018-05-29T08:53:23.033Z,5.04
2018-05-29T08:59:18.040Z,6.04
2018-05-29T09:05:13.269Z,5.35
2018-05-29T09:11:08.048Z,6.04
2018-05-29T09:17:03.150Z,5.67
2018-05-29T09:22:58.087Z,5.28
2018-05-29T09:28:53.157Z,4.95
2018-05-29T09:34:48.100Z,5.87
2018-05-29T09:40:43.047Z,4.53
2018-05-29T09:46:38.098Z,4.65
2018-05-29T09:52:33.057Z,4.48
2018-05-29T09:58:28.073Z,4.11
2018-05-29T10:04:23.151Z,3.73
2018-05-29T10:10:18.127Z,3.11
2018-05-29T10:16:13.097Z,3.35
2018-05-29T10:22:08.117Z,3.68
2018-05-29T10:28:03.140Z,3.51
2018-05-29T10:33:58.167Z,3.57
2018-05-29T10:39:53.114Z,3.91
2018-05-29T10:45:48.103Z,3.14
2018-05-29T10:51:43.147Z,3.94
2018-05-29T10:57:38.117Z,2.93
2018-05-29T11:03:33.100Z,3.11
2018-05-29T11:09:28.136Z,3.16
2018-05-29T11:15:23.109Z,3
2018-05-29T11:21:18.141Z,2.53
2018-05-29T11:27:13.124Z,2.82
2018-05-29T11:33:08.152Z,2.78
2018-05-29T11:39:03.154Z,2.55
2018-05-29T11:44:58.217Z,3.1
2018-05-29T11:50:53.137Z,2.7
2018-05-29T11:56:48.149Z,3.08
2018-05-29T12:02:43.170Z,2.74
2018-05-29T12:08:38.233Z,2.5
2018-05-29T12:14:33.206Z,2.18
2018-05-29T12:20:28.187Z,2.26
2018-05-29T12:26:23.168Z,2.22
2018-05-29T12:32:18.188Z,2.01
2018-05-29T12:38:13.274Z,2.21
2018-05-29T12:44:08.198Z,2.67
2018-05-29T12:50:03.547Z,2.08
2018-05-29T12:55:58.248Z,2.09
2018-05-29T13:01:53.197Z,2.03
2018-05-29T13:07:48.189Z,2.02
2018-05-29T13:13:43.214Z,2.52
2018-05-29T13:19:38.192Z,1.67
2018-05-29T13:25:33.190Z,1.74
2018-05-29T13:31:28.227Z,2
2018-05-29T13:37:23.228Z,1.65
2018-05-29T13:43:18.244Z,2.14
2018-05-29T13:49:13.277Z,2.18
2018-05-29T13:55:08.232Z,2.14
2018-05-29T14:01:03.234Z,2.11
2018-05-29T14:06:58.237Z,1.7
2018-05-29T14:12:53.249Z,1.88
2018-05-29T14:18:48.262Z,1.98
2018-05-29T14:24:43.244Z,1.94
2018-05-29T14:30:38.267Z,2.5
2018-05-29T14:36:33.249Z,3.02
2018-05-29T14:42:28.234Z,2.51
2018-05-29T14:48:23.227Z,2.78
2018-05-29T14:54:18.308Z,2.78
2018-05-29T15:00:13.251Z,2.55
2018-05-29T15:06:08.263Z,2.76
2018-05-29T15:12:03.262Z,2.41
2018-05-29T15:17:58.247Z,2.89
2018-05-29T15:23:53.258Z,3.51
2018-05-29T15:29:48.322Z,3.23
2018-05-29T15:35:43.333Z,2.86
2018-05-29T15:41:38.299Z,3.17
2018-05-29T15:47:33.298Z,4.05
2018-05-29T15:53:28.302Z,4.33
2018-05-29T15:59:23.263Z,4.69
2018-05-29T16:05:18.282Z,4.9
2018-05-29T16:11:13.306Z,4.83
2018-05-29T16:17:08.319Z,4.87
2018-05-29T16:23:03.324Z,5.34
2018-05-29T16:28:58.319Z,4.65
2018-05-29T16:34:53.307Z,5.19
2018-05-29T16:40:48.323Z,5.32
2018-05-29T16:46:43.305Z,4.55
2018-05-29T16:52:38.328Z,4.61
2018-05-29T16:58:33.336Z,5.39
2018-05-29T17:04:28.367Z,5.41
2018-05-29T17:10:23.365Z,4.95
2018-05-29T17:16:18.411Z,4.78
2018-05-29T17:22:13.332Z,5.2
2018-05-29T17:28:08.342Z,4.75
2018-05-29T17:34:03.342Z,3.47
2018-05-29T17:39:58.402Z,3.57
2018-05-29T17:45:53.391Z,3.79
2018-05-29T17:51:48.355Z,3.45
2018-05-29T17:57:43.371Z,3.93
2018-05-29T18:03:38.361Z,3.99
2018-05-29T18:09:33.382Z,4.41
2018-05-29T18:15:28.404Z,4.12
2018-05-29T18:21:23.368Z,4.66
2018-05-29T18:27:18.414Z,5.05
2018-05-29T18:33:13.439Z,4.43
2018-05-29T18:39:08.407Z,5.97
2018-05-29T18:45:03.856Z,5.39
2018-05-29T18:50:58.373Z,5.22
2018-05-29T18:56:53.380Z,5.38
2018-05-29T19:02:48.403Z,4.35
2018-05-29T19:08:43.407Z,3.68
2018-05-29T19:14:38.435Z,4.59
2018-05-29T19:20:33.395Z,3.94
2018-05-29T19:26:28.466Z,3.37
2018-05-29T19:32:23.395Z,3.5
2018-05-29T19:38:18.427Z,3.73
2018-05-29T19:44:13.480Z,3.55
2018-05-29T19:50:08.403Z,4.15
2018-05-29T19:56:03.436Z,3.34
2018-05-29T20:01:58.442Z,6.44
2018-05-29T20:07:53.417Z,6.23
2018-05-29T20:13:48.459Z,5.44
2018-05-29T20:19:43.483Z,4.86
2018-05-29T20:25:38.465Z,5.39
2018-05-29T20:31:33.433Z,5.64
2018-05-29T20:37:28.453Z,5.3
2018-05-29T20:43:23.459Z,4.6
2018-05-29T20:49:18.464Z,4.37
2018-05-29T20:55:13.449Z,4.47
2018-05-29T21:01:08.571Z,5.04
2018-05-29T21:07:03.502Z,4.54
2018-05-29T21:12:58.483Z,5.17
2018-05-29T21:18:53.511Z,4.31
2018-05-29T21:24:48.527Z,4.77
2018-05-29T21:30:43.478Z,4.49
2018-05-29T21:36:38.493Z,4.89
2018-05-29T21:42:33.547Z,4.6
2018-05-29T21:48:28.529Z,5.77
2018-05-29T21:54:23.535Z,5.01
2018-05-29T22:00:18.513Z,4.87
2018-05-29T22:06:13.540Z,5.1
2018-05-29T22:12:08.540Z,4.94
2018-05-29T22:18:03.516Z,5.66
2018-05-29T22:23:58.560Z,5.75
2018-05-29T22:29:53.529Z,5.85
2018-05-29T22:35:48.511Z,5.31
2018-05-29T22:41:43.676Z,4.85
2018-05-29T22:47:38.548Z,5.38
2018-05-29T22:53:33.531Z,5.33
2018-05-29T22:59:28.576Z,4.78
2018-05-29T23:05:23.552Z,5.17
2018-05-29T23:11:18.537Z,5.3
2018-05-29T23:17:13.546Z,5.2
2018-05-29T23:23:08.567Z,5.08
2018-05-29T23:29:03.564Z,5.35
2018-05-29T23:34:58.545Z,5.39
2018-05-29T23:40:53.581Z,5.53
2018-05-29T23:46:48.578Z,5.25
2018-05-29T23:52:43.611Z,5.34
2018-05-29T23:58:38.569Z,5.37
